Terminal Aerodrome Forecast
Issued by NWS Blacksburg, VA

Current Version | Previous Version | Text Only | Print | Product List | Glossary Off
Versions: 1 2 3 4 5 6 7 8 9 10 11 12 13 14 15 16 17 18 19 20 21 22 23 24 25 26 27 28 29 30 31 32 33 34 35 36 37 38 39 40 41

000
FTUS41 KRNK 251729
TAFBLF
TAF
KBLF 251729Z 2518/2618 28007G14KT P6SM SCT250
     FM252100 32005KT P6SM SCT035 BKN150
     FM260400 05003KT P6SM -RA OVC035
     FM260700 02005KT 3SM -SN BR SCT007 OVC015
     FM261000 32004KT 2SM -SN BR OVC007
      TEMPO 2611/2615 1/2SM SN FG OVC004=

USA.gov is the U.S. government's official web portal to all federal, state and local government web resources and services.